sensor_id;sensor_type;location;lat;lon;timestamp;pressure;altitude;pressure_sealevel;temperature;humidity
71126;BME280;58785;55.566;38.058;2023-10-19T00:00:55;99381.47;;;6.55;81.17
71126;BME280;58785;55.566;38.058;2023-10-19T00:03:26;99380.91;;;6.51;81.40
71126;BME280;58785;55.566;38.058;2023-10-19T00:05:55;99381.59;;;6.53;81.26
71126;BME280;58785;55.566;38.058;2023-10-19T00:08:22;99367.25;;;6.46;81.23
71126;BME280;58785;55.566;38.058;2023-10-19T00:10:51;99385.09;;;6.54;81.54
71126;BME280;58785;55.566;38.058;2023-10-19T00:13:49;99375.47;;;6.53;81.21
71126;BME280;58785;55.566;38.058;2023-10-19T00:16:23;99380.34;;;6.57;81.40
71126;BME280;58785;55.566;38.058;2023-10-19T00:18:55;99379.34;;;6.58;81.83
71126;BME280;58785;55.566;38.058;2023-10-19T00:21:25;99386.19;;;6.61;81.31
71126;BME280;58785;55.566;38.058;2023-10-19T00:23:56;99385.09;;;6.63;81.15
71126;BME280;58785;55.566;38.058;2023-10-19T00:26:27;99376.00;;;6.56;81.78
71126;BME280;58785;55.566;38.058;2023-10-19T00:28:56;99379.34;;;6.58;81.28
71126;BME280;58785;55.566;38.058;2023-10-19T00:31:24;99375.47;;;6.62;82.02
71126;BME280;58785;55.566;38.058;2023-10-19T00:33:53;99366.81;;;6.60;81.67
71126;BME280;58785;55.566;38.058;2023-10-19T00:36:23;99364.59;;;6.56;81.47
71126;BME280;58785;55.566;38.058;2023-10-19T00:38:50;99363.75;;;6.55;82.14
71126;BME280;58785;55.566;38.058;2023-10-19T00:41:25;99355.25;;;6.52;82.13
71126;BME280;58785;55.566;38.058;2023-10-19T00:43:55;99372.25;;;6.59;81.73
71126;BME280;58785;55.566;38.058;2023-10-19T00:46:29;99378.13;;;6.62;81.42
71126;BME280;58785;55.566;38.058;2023-10-19T00:49:02;99376.31;;;6.63;82.30
71126;BME280;58785;55.566;38.058;2023-10-19T00:51:35;99372.53;;;6.66;81.41
71126;BME280;58785;55.566;38.058;2023-10-19T00:56:37;99357.63;;;6.55;82.04
71126;BME280;58785;55.566;38.058;2023-10-19T00:59:07;99363.59;;;6.57;81.86
71126;BME280;58785;55.566;38.058;2023-10-19T01:01:41;99372.25;;;6.59;82.02
71126;BME280;58785;55.566;38.058;2023-10-19T01:04:11;99365.28;;;6.58;81.40
71126;BME280;58785;55.566;38.058;2023-10-19T01:06:41;99373.50;;;6.65;81.77
71126;BME280;58785;55.566;38.058;2023-10-19T01:09:11;99372.81;;;6.62;81.65
71126;BME280;58785;55.566;38.058;2023-10-19T01:11:42;99369.44;;;6.60;81.50
71126;BME280;58785;55.566;38.058;2023-10-19T01:14:21;99360.41;;;6.53;81.43
71126;BME280;58785;55.566;38.058;2023-10-19T01:16:48;99370.72;;;6.56;81.53
71126;BME280;58785;55.566;38.058;2023-10-19T01:19:16;99371.69;;;6.55;82.35
71126;BME280;58785;55.566;38.058;2023-10-19T01:21:46;99349.38;;;6.48;82.00
71126;BME280;58785;55.566;38.058;2023-10-19T01:24:19;99361.78;;;6.57;81.56
71126;BME280;58785;55.566;38.058;2023-10-19T01:26:55;99362.78;;;6.56;81.49
71126;BME280;58785;55.566;38.058;2023-10-19T01:29:22;99362.47;;;6.59;82.27
71126;BME280;58785;55.566;38.058;2023-10-19T01:31:52;99352.47;;;6.53;82.35
71126;BME280;58785;55.566;38.058;2023-10-19T01:34:37;99359.97;;;6.58;82.34
71126;BME280;58785;55.566;38.058;2023-10-19T01:37:03;99356.66;;;6.56;82.19
71126;BME280;58785;55.566;38.058;2023-10-19T01:39:33;99350.50;;;6.55;81.97
71126;BME280;58785;55.566;38.058;2023-10-19T01:42:05;99360.13;;;6.56;81.62
71126;BME280;58785;55.566;38.058;2023-10-19T01:44:32;99358.75;;;6.52;82.31
71126;BME280;58785;55.566;38.058;2023-10-19T01:47:02;99356.94;;;6.53;81.71
71126;BME280;58785;55.566;38.058;2023-10-19T01:49:31;99371.16;;;6.61;82.34
71126;BME280;58785;55.566;38.058;2023-10-19T01:51:57;99362.91;;;6.65;82.03
71126;BME280;58785;55.566;38.058;2023-10-19T01:54:24;99366.69;;;6.62;81.88
71126;BME280;58785;55.566;38.058;2023-10-19T01:56:55;99370.41;;;6.69;81.91
71126;BME280;58785;55.566;38.058;2023-10-19T01:59:27;99363.75;;;6.65;81.86
71126;BME280;58785;55.566;38.058;2023-10-19T02:01:53;99356.63;;;6.66;82.49
71126;BME280;58785;55.566;38.058;2023-10-19T02:04:20;99355.66;;;6.67;82.38
71126;BME280;58785;55.566;38.058;2023-10-19T02:06:47;99359.81;;;6.69;81.77
71126;BME280;58785;55.566;38.058;2023-10-19T02:09:14;99349.09;;;6.71;81.65
71126;BME280;58785;55.566;38.058;2023-10-19T02:11:55;99363.59;;;6.76;81.65
71126;BME280;58785;55.566;38.058;2023-10-19T02:14:24;99363.59;;;6.76;81.59
71126;BME280;58785;55.566;38.058;2023-10-19T02:16:53;99362.59;;;6.77;81.71
71126;BME280;58785;55.566;38.058;2023-10-19T02:19:23;99355.34;;;6.79;81.34
71126;BME280;58785;55.566;38.058;2023-10-19T02:21:52;99348.00;;;6.73;82.30
71126;BME280;58785;55.566;38.058;2023-10-19T02:24:19;99353.81;;;6.77;81.42
71126;BME280;58785;55.566;38.058;2023-10-19T02:26:48;99345.34;;;6.73;82.21
71126;BME280;58785;55.566;38.058;2023-10-19T02:29:17;99357.47;;;6.76;82.32
71126;BME280;58785;55.566;38.058;2023-10-19T02:31:43;99355.34;;;6.70;82.31
71126;BME280;58785;55.566;38.058;2023-10-19T02:34:11;99340.59;;;6.67;82.03
71126;BME280;58785;55.566;38.058;2023-10-19T02:36:38;99357.47;;;6.76;81.60
71126;BME280;58785;55.566;38.058;2023-10-19T02:39:07;99357.59;;;6.74;81.96
71126;BME280;58785;55.566;38.058;2023-10-19T02:41:38;99354.13;;;6.74;82.02
71126;BME280;58785;55.566;38.058;2023-10-19T02:44:08;99333.63;;;6.66;81.93
71126;BME280;58785;55.566;38.058;2023-10-19T02:46:55;99341.84;;;6.73;82.01
71126;BME280;58785;55.566;38.058;2023-10-19T02:49:25;99346.72;;;6.77;81.96
71126;BME280;58785;55.566;38.058;2023-10-19T02:51:52;99353.69;;;6.78;81.71
71126;BME280;58785;55.566;38.058;2023-10-19T02:54:22;99358.44;;;6.75;82.20
71126;BME280;58785;55.566;38.058;2023-10-19T02:56:54;99348.69;;;6.75;82.10
71126;BME280;58785;55.566;38.058;2023-10-19T02:59:24;99345.03;;;6.76;81.99
71126;BME280;58785;55.566;38.058;2023-10-19T03:01:57;99346.03;;;6.75;82.33
71126;BME280;58785;55.566;38.058;2023-10-19T03:04:39;99357.75;;;6.82;82.39
71126;BME280;58785;55.566;38.058;2023-10-19T03:07:06;99350.63;;;6.83;81.74
71126;BME280;58785;55.566;38.058;2023-10-19T03:09:33;99353.13;;;6.84;81.94
71126;BME280;58785;55.566;38.058;2023-10-19T03:12:03;99332.78;;;6.75;82.01
71126;BME280;58785;55.566;38.058;2023-10-19T03:14:30;99351.47;;;6.83;82.39
71126;BME280;58785;55.566;38.058;2023-10-19T03:16:57;99347.13;;;6.82;81.58
71126;BME280;58785;55.566;38.058;2023-10-19T03:19:25;99347.69;;;6.86;82.09
71126;BME280;58785;55.566;38.058;2023-10-19T03:21:51;99344.59;;;6.81;82.50
71126;BME280;58785;55.566;38.058;2023-10-19T03:24:21;99349.50;;;6.85;81.86
71126;BME280;58785;55.566;38.058;2023-10-19T03:27:07;99352.16;;;6.85;82.62
71126;BME280;58785;55.566;38.058;2023-10-19T03:29:42;99339.59;;;6.87;82.48
71126;BME280;58785;55.566;38.058;2023-10-19T03:32:12;99339.72;;;6.86;81.80
71126;BME280;58785;55.566;38.058;2023-10-19T03:34:38;99351.59;;;6.91;82.16
71126;BME280;58785;55.566;38.058;2023-10-19T03:37:04;99348.06;;;6.91;81.83
71126;BME280;58785;55.566;38.058;2023-10-19T03:39:37;99346.69;;;6.87;82.26
71126;BME280;58785;55.566;38.058;2023-10-19T03:42:04;99345.88;;;6.86;82.45
71126;BME280;58785;55.566;38.058;2023-10-19T03:44:34;99353.53;;;6.89;82.42
71126;BME280;58785;55.566;38.058;2023-10-19T03:47:17;99358.81;;;6.89;81.74
71126;BME280;58785;55.566;38.058;2023-10-19T03:50:01;99350.03;;;6.89;81.72
71126;BME280;58785;55.566;38.058;2023-10-19T03:52:48;99354.50;;;6.88;82.47
71126;BME280;58785;55.566;38.058;2023-10-19T03:55:13;99357.16;;;6.88;82.05
71126;BME280;58785;55.566;38.058;2023-10-19T03:57:48;99355.34;;;6.89;82.01
71126;BME280;58785;55.566;38.058;2023-10-19T04:00:20;99356.59;;;6.85;81.89
71126;BME280;58785;55.566;38.058;2023-10-19T04:02:54;99364.13;;;6.89;82.56
71126;BME280;58785;55.566;38.058;2023-10-19T04:05:21;99350.88;;;6.89;82.00
71126;BME280;58785;55.566;38.058;2023-10-19T04:07:51;99363.56;;;6.96;82.28
71126;BME280;58785;55.566;38.058;2023-10-19T04:10:24;99360.47;;;7.00;82.50
71126;BME280;58785;55.566;38.058;2023-10-19T04:13:16;99354.63;;;6.97;81.51
71126;BME280;58785;55.566;38.058;2023-10-19T04:15:45;99363.84;;;7.02;81.42
71126;BME280;58785;55.566;38.058;2023-10-19T04:18:11;99354.47;;;6.98;81.60
71126;BME280;58785;55.566;38.058;2023-10-19T04:20:40;99360.47;;;7.00;82.19
71126;BME280;58785;55.566;38.058;2023-10-19T04:23:15;99369.13;;;7.02;82.07
71126;BME280;58785;55.566;38.058;2023-10-19T04:25:41;99361.31;;;7.01;81.94
71126;BME280;58785;55.566;38.058;2023-10-19T04:28:07;99369.13;;;7.02;82.64
71126;BME280;58785;55.566;38.058;2023-10-19T04:30:34;99361.44;;;6.99;82.58
71126;BME280;58785;55.566;38.058;2023-10-19T04:33:03;99369.13;;;7.02;82.03
71126;BME280;58785;55.566;38.058;2023-10-19T04:35:29;99373.00;;;7.08;82.02
71126;BME280;58785;55.566;38.058;2023-10-19T04:38:00;99360.88;;;7.05;81.95
71126;BME280;58785;55.566;38.058;2023-10-19T04:40:26;99371.75;;;7.12;81.72
71126;BME280;58785;55.566;38.058;2023-10-19T04:42:57;99360.75;;;7.07;81.59
71126;BME280;58785;55.566;38.058;2023-10-19T04:45:23;99367.00;;;7.15;81.66
71126;BME280;58785;55.566;38.058;2023-10-19T04:47:52;99374.94;;;7.15;81.77
71126;BME280;58785;55.566;38.058;2023-10-19T04:50:18;99369.94;;;7.12;82.10
71126;BME280;58785;55.566;38.058;2023-10-19T04:52:44;99358.09;;;7.07;82.39
71126;BME280;58785;55.566;38.058;2023-10-19T04:55:10;99365.47;;;7.13;81.65
71126;BME280;58785;55.566;38.058;2023-10-19T04:57:36;99364.22;;;7.07;82.05
71126;BME280;58785;55.566;38.058;2023-10-19T05:00:02;99370.06;;;7.11;82.10
71126;BME280;58785;55.566;38.058;2023-10-19T05:02:31;99361.56;;;7.07;81.59
71126;BME280;58785;55.566;38.058;2023-10-19T05:04:57;99370.47;;;7.16;82.38
71126;BME280;58785;55.566;38.058;2023-10-19T05:07:22;99371.31;;;7.16;82.30
71126;BME280;58785;55.566;38.058;2023-10-19T05:09:49;99366.84;;;7.17;82.05
71126;BME280;58785;55.566;38.058;2023-10-19T05:12:19;99370.34;;;7.17;81.83
71126;BME280;58785;55.566;38.058;2023-10-19T05:14:45;99367.38;;;7.20;82.38
71126;BME280;58785;55.566;38.058;2023-10-19T05:17:11;99373.94;;;7.26;81.75
71126;BME280;58785;55.566;38.058;2023-10-19T05:19:39;99376.44;;;7.28;82.10
71126;BME280;58785;55.566;38.058;2023-10-19T05:22:07;99372.81;;;7.29;82.28
71126;BME280;58785;55.566;38.058;2023-10-19T05:24:33;99368.06;;;7.32;82.07
71126;BME280;58785;55.566;38.058;2023-10-19T05:26:59;99369.03;;;7.31;81.88
71126;BME280;58785;55.566;38.058;2023-10-19T05:29:25;99368.19;;;7.31;82.41
71126;BME280;58785;55.566;38.058;2023-10-19T05:31:53;99376.88;;;7.33;82.34
71126;BME280;58785;55.566;38.058;2023-10-19T05:34:20;99376.41;;;7.37;82.24
71126;BME280;58785;55.566;38.058;2023-10-19T05:36:47;99369.97;;;7.40;81.21
71126;BME280;58785;55.566;38.058;2023-10-19T05:39:18;99375.53;;;7.46;81.67
71126;BME280;58785;55.566;38.058;2023-10-19T05:41:44;99371.34;;;7.54;81.43
71126;BME280;58785;55.566;38.058;2023-10-19T05:44:10;99369.22;;;7.57;81.72
71126;BME280;58785;55.566;38.058;2023-10-19T05:46:36;99378.69;;;7.60;81.05
71126;BME280;58785;55.566;38.058;2023-10-19T05:49:02;99391.66;;;7.72;81.77
71126;BME280;58785;55.566;38.058;2023-10-19T05:51:30;99381.88;;;7.73;80.98
71126;BME280;58785;55.566;38.058;2023-10-19T05:53:57;99384.88;;;7.78;80.80
71126;BME280;58785;55.566;38.058;2023-10-19T05:56:28;99388.09;;;7.82;80.97
71126;BME280;58785;55.566;38.058;2023-10-19T05:58:57;99388.19;;;7.90;80.54
71126;BME280;58785;55.566;38.058;2023-10-19T06:01:23;99388.75;;;7.93;81.00
71126;BME280;58785;55.566;38.058;2023-10-19T06:03:50;99385.94;;;7.95;81.07
71126;BME280;58785;55.566;38.058;2023-10-19T06:06:17;99381.75;;;7.92;80.34
71126;BME280;58785;55.566;38.058;2023-10-19T06:08:43;99389.66;;;8.02;81.20
71126;BME280;58785;55.566;38.058;2023-10-19T06:11:08;99388.53;;;8.04;80.64
71126;BME280;58785;55.566;38.058;2023-10-19T06:13:34;99378.91;;;8.03;80.94
71126;BME280;58785;55.566;38.058;2023-10-19T06:16:00;99380.72;;;8.03;80.44
71126;BME280;58785;55.566;38.058;2023-10-19T06:18:26;99380.78;;;8.11;80.84
71126;BME280;58785;55.566;38.058;2023-10-19T06:20:52;99392.78;;;8.15;80.45
71126;BME280;58785;55.566;38.058;2023-10-19T06:23:20;99383.00;;;8.16;80.83
71126;BME280;58785;55.566;38.058;2023-10-19T06:25:46;99394.31;;;8.18;80.61
71126;BME280;58785;55.566;38.058;2023-10-19T06:28:12;99385.19;;;8.20;80.11
71126;BME280;58785;55.566;38.058;2023-10-19T06:30:38;99398.13;;;8.33;80.11
71126;BME280;58785;55.566;38.058;2023-10-19T06:33:06;99390.03;;;8.34;79.86
71126;BME280;58785;55.566;38.058;2023-10-19T06:35:33;99389.72;;;8.38;79.95
71126;BME280;58785;55.566;38.058;2023-10-19T06:38:01;99392.22;;;8.39;80.17
71126;BME280;58785;55.566;38.058;2023-10-19T06:40:30;99392.78;;;8.43;79.88
71126;BME280;58785;55.566;38.058;2023-10-19T06:42:59;99387.59;;;8.41;80.45
71126;BME280;58785;55.566;38.058;2023-10-19T06:45:25;99391.47;;;8.47;80.49
71126;BME280;58785;55.566;38.058;2023-10-19T06:47:52;99398.84;;;8.53;79.98
71126;BME280;58785;55.566;38.058;2023-10-19T06:50:22;99387.25;;;8.54;79.56
71126;BME280;58785;55.566;38.058;2023-10-19T06:52:49;99385.41;;;8.54;79.92
71126;BME280;58785;55.566;38.058;2023-10-19T06:55:17;99391.41;;;8.56;80.13
71126;BME280;58785;55.566;38.058;2023-10-19T06:57:48;99395.41;;;8.60;80.09
71126;BME280;58785;55.566;38.058;2023-10-19T07:00:17;99386.41;;;8.53;79.84
71126;BME280;58785;55.566;38.058;2023-10-19T07:02:51;99395.06;;;8.55;80.18
71126;BME280;58785;55.566;38.058;2023-10-19T07:05:18;99391.31;;;8.48;80.21
71126;BME280;58785;55.566;38.058;2023-10-19T07:07:47;99381.59;;;8.39;79.73
71126;BME280;58785;55.566;38.058;2023-10-19T07:10:14;99374.66;;;8.28;80.51
71126;BME280;58785;55.566;38.058;2023-10-19T07:12:47;99387.22;;;8.36;80.14
71126;BME280;58785;55.566;38.058;2023-10-19T07:15:14;99395.34;;;8.34;79.74
71126;BME280;58785;55.566;38.058;2023-10-19T07:17:41;99385.09;;;8.40;79.90
71126;BME280;58785;55.566;38.058;2023-10-19T07:20:09;99405.16;;;8.52;80.05
71126;BME280;58785;55.566;38.058;2023-10-19T07:22:47;99390.41;;;8.57;79.65
71126;BME280;58785;55.566;38.058;2023-10-19T07:25:13;99400.59;;;8.62;79.06
71126;BME280;58785;55.566;38.058;2023-10-19T07:27:39;99394.34;;;8.71;79.23
71126;BME280;58785;55.566;38.058;2023-10-19T07:30:08;99398.53;;;8.74;78.96
71126;BME280;58785;55.566;38.058;2023-10-19T07:32:35;99400.06;;;8.76;79.07
71126;BME280;58785;55.566;38.058;2023-10-19T07:35:01;99411.03;;;8.81;78.84
71126;BME280;58785;55.566;38.058;2023-10-19T07:37:29;99410.22;;;8.81;78.60
71126;BME280;58785;55.566;38.058;2023-10-19T07:39:57;99403.22;;;8.80;78.22
71126;BME280;58785;55.566;38.058;2023-10-19T07:42:23;99420.09;;;8.88;78.54
71126;BME280;58785;55.566;38.058;2023-10-19T07:44:49;99397.38;;;8.94;78.84
71126;BME280;58785;55.566;38.058;2023-10-19T07:47:18;99417.09;;;9.09;78.21
71126;BME280;58785;55.566;38.058;2023-10-19T07:49:43;99397.69;;;9.17;78.06
71126;BME280;58785;55.566;38.058;2023-10-19T07:52:09;99400.16;;;9.36;77.79
71126;BME280;58785;55.566;38.058;2023-10-19T07:54:40;99388.63;;;9.54;77.35
71126;BME280;58785;55.566;38.058;2023-10-19T07:57:06;99400.19;;;9.78;76.30
71126;BME280;58785;55.566;38.058;2023-10-19T07:59:33;99398.13;;;9.98;76.48
71126;BME280;58785;55.566;38.058;2023-10-19T08:01:59;99400.97;;;10.05;75.63
71126;BME280;58785;55.566;38.058;2023-10-19T08:04:30;99396.94;;;10.01;75.46
71126;BME280;58785;55.566;38.058;2023-10-19T08:07:00;99405.44;;;9.96;75.12
71126;BME280;58785;55.566;38.058;2023-10-19T08:09:25;99404.75;;;9.94;75.63
71126;BME280;58785;55.566;38.058;2023-10-19T08:11:57;99409.44;;;9.92;76.28
71126;BME280;58785;55.566;38.058;2023-10-19T08:14:25;99412.38;;;9.89;75.92
71126;BME280;58785;55.566;38.058;2023-10-19T08:16:52;99400.03;;;9.80;75.54
71126;BME280;58785;55.566;38.058;2023-10-19T08:19:19;99405.00;;;9.75;75.96
71126;BME280;58785;55.566;38.058;2023-10-19T08:21:45;99403.81;;;9.69;75.78
71126;BME280;58785;55.566;38.058;2023-10-19T08:24:11;99416.41;;;9.59;76.67
71126;BME280;58785;55.566;38.058;2023-10-19T08:26:40;99418.50;;;9.47;76.56
71126;BME280;58785;55.566;38.058;2023-10-19T08:29:08;99422.09;;;9.38;76.97
71126;BME280;58785;55.566;38.058;2023-10-19T08:31:42;99422.38;;;9.27;77.17
71126;BME280;58785;55.566;38.058;2023-10-19T08:34:11;99417.81;;;9.19;77.21
71126;BME280;58785;55.566;38.058;2023-10-19T08:36:38;99431.66;;;9.23;77.41
71126;BME280;58785;55.566;38.058;2023-10-19T08:39:08;99427.19;;;9.24;77.39
71126;BME280;58785;55.566;38.058;2023-10-19T08:41:34;99425.69;;;9.29;77.22
71126;BME280;58785;55.566;38.058;2023-10-19T08:44:09;99418.09;;;9.34;77.28
71126;BME280;58785;55.566;38.058;2023-10-19T08:46:42;99419.00;;;9.43;77.37
71126;BME280;58785;55.566;38.058;2023-10-19T08:49:15;99414.19;;;9.46;76.53
71126;BME280;58785;55.566;38.058;2023-10-19T08:51:45;99415.38;;;9.52;76.97
71126;BME280;58785;55.566;38.058;2023-10-19T08:54:13;99417.06;;;9.53;76.67
71126;BME280;58785;55.566;38.058;2023-10-19T08:56:40;99419.00;;;9.51;76.85
71126;BME280;58785;55.566;38.058;2023-10-19T08:59:08;99416.16;;;9.44;76.51
71126;BME280;58785;55.566;38.058;2023-10-19T09:01:37;99425.16;;;9.51;76.54
71126;BME280;58785;55.566;38.058;2023-10-19T09:04:04;99417.72;;;9.55;76.30
71126;BME280;58785;55.566;38.058;2023-10-19T09:06:37;99426.75;;;9.62;76.35
71126;BME280;58785;55.566;38.058;2023-10-19T09:09:11;99434.59;;;9.72;76.67
71126;BME280;58785;55.566;38.058;2023-10-19T09:11:46;99423.81;;;9.73;76.15
71126;BME280;58785;55.566;38.058;2023-10-19T09:14:12;99425.66;;;9.73;76.04
71126;BME280;58785;55.566;38.058;2023-10-19T09:16:53;99425.66;;;9.73;76.04
71126;BME280;58785;55.566;38.058;2023-10-19T09:19:42;99412.75;;;9.60;75.63
71126;BME280;58785;55.566;38.058;2023-10-19T09:22:10;99428.94;;;9.67;75.80
71126;BME280;58785;55.566;38.058;2023-10-19T09:24:45;99438.91;;;9.65;75.96
71126;BME280;58785;55.566;38.058;2023-10-19T09:27:13;99431.22;;;9.62;75.75
71126;BME280;58785;55.566;38.058;2023-10-19T09:29:39;99436.59;;;9.70;75.63
71126;BME280;58785;55.566;38.058;2023-10-19T09:32:07;99430.97;;;9.73;75.26
71126;BME280;58785;55.566;38.058;2023-10-19T09:34:34;99426.47;;;9.73;75.30
71126;BME280;58785;55.566;38.058;2023-10-19T09:37:00;99433.47;;;9.74;75.63
71126;BME280;58785;55.566;38.058;2023-10-19T09:39:30;99431.16;;;9.79;75.02
71126;BME280;58785;55.566;38.058;2023-10-19T09:42:07;99433.16;;;9.77;75.08
71126;BME280;58785;55.566;38.058;2023-10-19T09:44:44;99440.66;;;9.82;75.00
71126;BME280;58785;55.566;38.058;2023-10-19T09:47:12;99438.50;;;9.86;75.52
71126;BME280;58785;55.566;38.058;2023-10-19T09:49:41;99444.47;;;9.79;75.45
71126;BME280;58785;55.566;38.058;2023-10-19T09:52:09;99441.09;;;9.69;75.02
71126;BME280;58785;55.566;38.058;2023-10-19T09:54:57;99443.50;;;9.55;75.25
71126;BME280;58785;55.566;38.058;2023-10-19T09:57:34;99435.91;;;9.34;75.72
71126;BME280;58785;55.566;38.058;2023-10-19T10:00:03;99442.44;;;9.21;75.95
71126;BME280;58785;55.566;38.058;2023-10-19T10:02:34;99441.50;;;9.05;76.25
71126;BME280;58785;55.566;38.058;2023-10-19T10:05:01;99449.41;;;8.97;76.37
71126;BME280;58785;55.566;38.058;2023-10-19T10:07:30;99449.25;;;8.98;76.23
71126;BME280;58785;55.566;38.058;2023-10-19T10:09:56;99452.38;;;8.93;76.70
71126;BME280;58785;55.566;38.058;2023-10-19T10:12:25;99452.97;;;8.87;76.98
71126;BME280;58785;55.566;38.058;2023-10-19T10:17:24;99429.88;;;8.70;76.84
71126;BME280;58785;55.566;38.058;2023-10-19T10:20:07;99454.88;;;8.77;76.93
71126;BME280;58785;55.566;38.058;2023-10-19T10:22:45;99439.91;;;8.76;77.41
71126;BME280;58785;55.566;38.058;2023-10-19T10:25:31;99449.66;;;8.85;77.47
71126;BME280;58785;55.566;38.058;2023-10-19T10:28:03;99449.63;;;9.03;77.19
71126;BME280;58785;55.566;38.058;2023-10-19T10:30:30;99455.00;;;9.11;76.55
71126;BME280;58785;55.566;38.058;2023-10-19T10:32:56;99448.41;;;9.15;76.70
71126;BME280;58785;55.566;38.058;2023-10-19T10:38:07;99453.59;;;9.43;76.46
71126;BME280;58785;55.566;38.058;2023-10-19T10:43:08;99447.50;;;9.59;76.30
71126;BME280;58785;55.566;38.058;2023-10-19T10:45:36;99457.53;;;9.65;76.01
71126;BME280;58785;55.566;38.058;2023-10-19T10:48:02;99449.56;;;9.65;75.67
71126;BME280;58785;55.566;38.058;2023-10-19T10:50:29;99457.72;;;9.63;75.93
71126;BME280;58785;55.566;38.058;2023-10-19T10:52:55;99452.16;;;9.57;75.92
71126;BME280;58785;55.566;38.058;2023-10-19T10:55:25;99454.00;;;9.56;76.35
71126;BME280;58785;55.566;38.058;2023-10-19T10:57:54;99453.78;;;9.49;76.67
71126;BME280;58785;55.566;38.058;2023-10-19T11:00:20;99454.09;;;9.46;76.38
71126;BME280;58785;55.566;38.058;2023-10-19T11:03:08;99441.72;;;9.37;76.56
71126;BME280;58785;55.566;38.058;2023-10-19T11:05:38;99444.38;;;9.37;76.52
71126;BME280;58785;55.566;38.058;2023-10-19T11:08:09;99454.88;;;9.39;76.85
71126;BME280;58785;55.566;38.058;2023-10-19T11:10:48;99452.28;;;9.47;76.30
71126;BME280;58785;55.566;38.058;2023-10-19T11:13:17;99445.78;;;9.49;76.44
71126;BME280;58785;55.566;38.058;2023-10-19T11:18:35;99457.09;;;9.51;76.17
71126;BME280;58785;55.566;38.058;2023-10-19T11:21:03;99455.94;;;9.46;76.11
71126;BME280;58785;55.566;38.058;2023-10-19T11:26:05;99456.44;;;9.49;76.54
71126;BME280;58785;55.566;38.058;2023-10-19T11:28:33;99463.44;;;9.50;75.84
71126;BME280;58785;55.566;38.058;2023-10-19T11:33:38;99457.81;;;9.54;75.41
71126;BME280;58785;55.566;38.058;2023-10-19T11:36:05;99457.81;;;9.54;75.73
71126;BME280;58785;55.566;38.058;2023-10-19T11:38:31;99448.16;;;9.53;75.71
71126;BME280;58785;55.566;38.058;2023-10-19T11:40:57;99456.50;;;9.58;75.25
71126;BME280;58785;55.566;38.058;2023-10-19T11:43:23;99446.00;;;9.56;75.72
71126;BME280;58785;55.566;38.058;2023-10-19T11:45:49;99447.31;;;9.52;75.72
71126;BME280;58785;55.566;38.058;2023-10-19T11:48:15;99447.09;;;9.45;75.71
71126;BME280;58785;55.566;38.058;2023-10-19T11:50:41;99456.75;;;9.46;75.51
71126;BME280;58785;55.566;38.058;2023-10-19T11:53:10;99448.41;;;9.41;75.87
71126;BME280;58785;55.566;38.058;2023-10-19T11:55:36;99448.56;;;9.40;75.99
71126;BME280;58785;55.566;38.058;2023-10-19T11:58:02;99444.78;;;9.42;75.74
71126;BME280;58785;55.566;38.058;2023-10-19T12:00:28;99441.78;;;9.45;75.95
71126;BME280;58785;55.566;38.058;2023-10-19T12:03:05;99445.78;;;9.49;75.86
71126;BME280;58785;55.566;38.058;2023-10-19T12:05:32;99445.78;;;9.49;75.51
71126;BME280;58785;55.566;38.058;2023-10-19T12:08:03;99457.28;;;9.50;75.81
71126;BME280;58785;55.566;38.058;2023-10-19T12:10:32;99455.59;;;9.49;75.76
71126;BME280;58785;55.566;38.058;2023-10-19T12:13:02;99446.47;;;9.51;75.58
71126;BME280;58785;55.566;38.058;2023-10-19T12:15:30;99454.16;;;9.55;75.69
71126;BME280;58785;55.566;38.058;2023-10-19T12:17:56;99455.81;;;9.56;75.67
71126;BME280;58785;55.566;38.058;2023-10-19T12:20:22;99455.66;;;9.57;75.53
71126;BME280;58785;55.566;38.058;2023-10-19T12:22:48;99458.16;;;9.59;74.92
71126;BME280;58785;55.566;38.058;2023-10-19T12:25:17;99455.00;;;9.55;75.47
71126;BME280;58785;55.566;38.058;2023-10-19T12:27:43;99448.28;;;9.51;75.70
71126;BME280;58785;55.566;38.058;2023-10-19T12:30:09;99444.28;;;9.47;75.99
71126;BME280;58785;55.566;38.058;2023-10-19T12:33:01;99456.44;;;9.49;76.16
71126;BME280;58785;55.566;38.058;2023-10-19T12:35:27;99450.94;;;9.43;75.66
71126;BME280;58785;55.566;38.058;2023-10-19T12:38:28;99460.25;;;9.47;75.97
71126;BME280;58785;55.566;38.058;2023-10-19T12:40:54;99456.53;;;9.40;76.18
71126;BME280;58785;55.566;38.058;2023-10-19T12:43:20;99459.19;;;9.40;76.10
71126;BME280;58785;55.566;38.058;2023-10-19T12:45:50;99454.53;;;9.34;76.14
71126;BME280;58785;55.566;38.058;2023-10-19T12:48:19;99453.69;;;9.33;75.98
71126;BME280;58785;55.566;38.058;2023-10-19T12:50:54;99453.53;;;9.35;76.03
71126;BME280;58785;55.566;38.058;2023-10-19T12:53:21;99451.69;;;9.35;76.14
71126;BME280;58785;55.566;38.058;2023-10-19T12:55:51;99467.03;;;9.41;75.86
71126;BME280;58785;55.566;38.058;2023-10-19T12:58:18;99474.16;;;9.41;76.13
71126;BME280;58785;55.566;38.058;2023-10-19T13:00:47;99456.25;;;9.43;76.09
71126;BME280;58785;55.566;38.058;2023-10-19T13:03:14;99458.53;;;9.38;75.60
71126;BME280;58785;55.566;38.058;2023-10-19T13:05:45;99470.69;;;9.40;75.82
71126;BME280;58785;55.566;38.058;2023-10-19T13:08:12;99460.00;;;9.32;75.85
71126;BME280;58785;55.566;38.058;2023-10-19T13:10:43;99462.50;;;9.34;76.04
71126;BME280;58785;55.566;38.058;2023-10-19T13:13:12;99460.13;;;9.31;75.63
71126;BME280;58785;55.566;38.058;2023-10-19T13:15:42;99467.59;;;9.27;76.16
71126;BME280;58785;55.566;38.058;2023-10-19T13:18:11;99462.22;;;9.19;76.25
71126;BME280;58785;55.566;38.058;2023-10-19T13:20:47;99468.38;;;9.19;76.24
71126;BME280;58785;55.566;38.058;2023-10-19T13:23:16;99455.31;;;9.08;76.34
71126;BME280;58785;55.566;38.058;2023-10-19T13:25:45;99466.63;;;9.10;76.49
71126;BME280;58785;55.566;38.058;2023-10-19T13:28:23;99470.06;;;9.03;76.45
71126;BME280;58785;55.566;38.058;2023-10-19T13:30:50;99472.72;;;9.03;76.81